Time;durP1;ratioP1;P1;durP2;ratioP2;P2;SDS_P1;SDS_P2;PMS_P1;PMS_P2;Temp;Humidity;BMP_temperature;BMP_pressure;BME280_temperature;BME280_humidity;BME280_pressure;Samples;Min_cycle;Max_cycle;Signal;HPM_P1;HPM_P2
2021/12/03 00:00:26;;;;;;;33.90;13.30;;;;;;;0.50;63.65;98719.65;127206;1306;108684;-76
2021/12/03 00:03:45;;;;;;;27.20;11.50;;;;;;;0.62;63.71;98729.49;126871;1306;108918;-77
2021/12/03 00:06:50;;;;;;;47.90;19.00;;;;;;;0.72;63.73;98729.75;126832;1306;109077;-77
2021/12/03 00:09:57;;;;;;;29.40;12.30;;;;;;;0.76;63.52;98727.14;127047;1306;108953;-77
2021/12/03 00:13:05;;;;;;;37.50;15.70;;;;;;;0.77;63.69;98734.35;127052;1306;107452;-79
2021/12/03 00:16:13;;;;;;;30.60;14.00;;;;;;;0.76;63.60;98735.34;126875;1306;108913;-77
2021/12/03 00:19:18;;;;;;;34.00;15.10;;;;;;;0.75;63.69;98735.39;126789;1306;108595;-77
2021/12/03 00:22:24;;;;;;;40.60;15.90;;;;;;;0.75;63.68;98733.48;126910;1306;108809;-77
2021/12/03 00:25:29;;;;;;;39.40;15.70;;;;;;;0.72;63.88;98733.41;126969;1306;108782;-77
2021/12/03 00:28:35;;;;;;;68.60;26.70;;;;;;;0.72;63.93;98743.40;126851;1306;108697;-77
2021/12/03 00:31:41;;;;;;;43.30;17.70;;;;;;;0.70;64.09;98758.97;127246;1306;108959;-77
2021/12/03 00:34:48;;;;;;;26.40;10.50;;;;;;;0.67;64.07;98761.33;127641;1306;108936;-77
2021/12/03 00:37:54;;;;;;;40.10;16.00;;;;;;;0.66;64.25;98767.13;127706;1306;108809;-77
2021/12/03 00:41:01;;;;;;;30.40;12.00;;;;;;;0.70;64.28;98762.80;127219;1306;107908;-77
2021/12/03 00:44:06;;;;;;;45.20;18.40;;;;;;;0.73;64.48;98767.11;127490;1306;108895;-77
2021/12/03 00:47:12;;;;;;;66.10;23.50;;;;;;;0.74;64.21;98769.61;127882;1306;108833;-77
2021/12/03 00:50:21;;;;;;;40.00;14.20;;;;;;;0.75;64.38;98772.55;127752;1306;107663;-77
2021/12/03 00:53:26;;;;;;;39.20;13.60;;;;;;;0.79;64.34;98773.63;127183;1306;108767;-77
2021/12/03 00:56:32;;;;;;;72.20;27.30;;;;;;;0.77;64.41;98769.36;126936;1306;108690;-76
2021/12/03 00:59:38;;;;;;;70.40;23.20;;;;;;;0.78;64.41;98774.02;127039;1306;108897;-77
2021/12/03 01:02:43;;;;;;;19.40;7.20;;;;;;;0.78;64.68;98773.68;127029;1306;108761;-78
2021/12/03 01:05:49;;;;;;;15.20;6.40;;;;;;;0.78;64.74;98771.94;127009;1306;106892;-78
2021/12/03 01:08:54;;;;;;;34.60;12.20;;;;;;;0.83;64.83;98772.10;127037;1306;108456;-77
2021/12/03 01:12:00;;;;;;;61.80;24.70;;;;;;;0.85;64.95;98782.55;126933;1306;108697;-76
2021/12/03 01:15:08;;;;;;;31.30;12.20;;;;;;;0.92;64.75;98790.86;127011;1308;108914;-76
2021/12/03 01:18:15;;;;;;;81.50;29.50;;;;;;;1.02;64.68;98793.43;127059;1306;108714;-77
2021/12/03 01:21:20;;;;;;;26.70;9.50;;;;;;;1.08;64.67;98796.08;126970;1306;107777;-77
2021/12/03 01:24:26;;;;;;;56.30;21.60;;;;;;;1.11;64.66;98798.61;126917;1306;108952;-77
2021/12/03 01:27:31;;;;;;;41.20;16.10;;;;;;;1.09;64.76;98795.23;126678;1306;106554;-77
2021/12/03 01:30:38;;;;;;;75.20;31.20;;;;;;;1.10;64.60;98795.20;126871;1307;108900;-77
2021/12/03 01:33:44;;;;;;;24.10;10.00;;;;;;;1.10;64.79;98803.23;126981;1307;108955;-76
2021/12/03 01:36:50;;;;;;;19.00;8.20;;;;;;;1.07;64.83;98809.46;127054;1306;108871;-77
2021/12/03 01:39:55;;;;;;;115.60;43.50;;;;;;;1.03;64.89;98813.81;127064;1306;108772;-77
2021/12/03 01:43:01;;;;;;;40.40;14.50;;;;;;;1.01;65.00;98817.66;127112;1306;107490;-77
2021/12/03 01:46:09;;;;;;;45.00;17.60;;;;;;;1.01;64.91;98817.86;126943;1306;108880;-74
2021/12/03 01:49:15;;;;;;;57.50;22.20;;;;;;;1.03;65.15;98821.03;126596;1306;108775;-74
2021/12/03 01:52:20;;;;;;;24.90;8.50;;;;;;;1.05;65.21;98824.53;127018;1306;107719;-76
2021/12/03 01:55:26;;;;;;;11.20;5.90;;;;;;;0.97;65.34;98829.33;127039;1306;109223;-76
2021/12/03 01:58:32;;;;;;;13.70;6.60;;;;;;;0.99;65.31;98833.59;127009;1312;108733;-75
2021/12/03 02:01:38;;;;;;;16.50;6.70;;;;;;;1.06;65.50;98833.17;126973;1309;108779;-76
2021/12/03 02:04:46;;;;;;;26.00;10.90;;;;;;;1.05;65.54;98831.30;126874;1306;108692;-77
2021/12/03 02:07:52;;;;;;;15.80;7.10;;;;;;;1.09;65.53;98835.91;126683;1307;109015;-76
2021/12/03 02:10:58;;;;;;;17.70;8.00;;;;;;;1.07;65.59;98843.77;126475;1309;108799;-76
2021/12/03 02:14:04;;;;;;;14.90;6.50;;;;;;;1.07;65.68;98846.72;127508;1312;108164;-77
2021/12/03 02:17:10;;;;;;;20.30;10.30;;;;;;;1.09;65.70;98853.96;127174;1313;108644;-76
2021/12/03 02:20:17;;;;;;;53.50;24.30;;;;;;;1.07;65.84;98855.66;126780;1309;108910;-78
2021/12/03 02:23:23;;;;;;;23.80;10.80;;;;;;;1.06;65.89;98855.45;126957;1307;107464;-77
2021/12/03 02:26:28;;;;;;;12.50;6.00;;;;;;;1.04;66.12;98860.14;127092;1306;108810;-77
2021/12/03 02:29:34;;;;;;;13.10;6.40;;;;;;;0.97;66.64;98869.42;126654;1309;108722;-75
2021/12/03 02:32:39;;;;;;;17.20;7.90;;;;;;;0.93;66.85;98872.94;126605;1306;108946;-76
2021/12/03 02:35:45;;;;;;;14.40;7.50;;;;;;;0.95;66.77;98883.43;126490;1309;108711;-77
2021/12/03 02:38:51;;;;;;;13.50;5.60;;;;;;;1.01;66.94;98879.48;126619;1312;108874;-77
2021/12/03 02:41:56;;;;;;;39.30;19.30;;;;;;;1.03;67.21;98881.89;126822;1306;108819;-77
2021/12/03 02:45:02;;;;;;;16.40;7.40;;;;;;;1.10;66.79;98887.13;126763;1309;108959;-77
2021/12/03 02:48:07;;;;;;;12.00;6.10;;;;;;;1.15;67.02;98891.96;126535;1309;108877;-77
2021/12/03 02:51:13;;;;;;;16.80;8.10;;;;;;;1.11;67.09;98897.89;127195;1306;109612;-77
2021/12/03 02:54:19;;;;;;;16.20;8.20;;;;;;;1.09;67.01;98898.42;126838;1312;108775;-76
2021/12/03 02:57:25;;;;;;;16.30;7.50;;;;;;;1.10;67.38;98902.17;126984;1306;107138;-75
2021/12/03 03:00:32;;;;;;;19.00;9.80;;;;;;;1.06;67.18;98908.14;126958;1309;108988;-77
2021/12/03 03:03:38;;;;;;;14.50;7.80;;;;;;;1.04;67.34;98917.08;126979;1309;108469;-76
2021/12/03 03:06:44;;;;;;;15.10;7.60;;;;;;;0.99;67.41;98927.22;126981;1309;108786;-75
2021/12/03 03:09:49;;;;;;;9.80;5.70;;;;;;;0.99;67.53;98935.82;126994;1306;109587;-75
2021/12/03 03:12:57;;;;;;;15.10;7.90;;;;;;;1.01;67.99;98942.15;126757;1306;108868;-76
2021/12/03 03:16:02;;;;;;;11.90;6.10;;;;;;;1.07;67.90;98950.75;126993;1306;107730;-75
2021/12/03 03:19:13;;;;;;;11.20;5.70;;;;;;;1.16;68.23;98953.13;126985;1312;108712;-77
2021/12/03 03:22:19;;;;;;;9.50;5.30;;;;;;;1.23;67.67;98951.25;127027;1306;108915;-76
2021/12/03 03:25:25;;;;;;;11.70;6.40;;;;;;;1.29;67.60;98953.92;126627;1309;108886;-76
2021/12/03 03:28:31;;;;;;;9.50;5.40;;;;;;;1.31;67.61;98958.79;126911;1306;109229;-78
2021/12/03 03:31:39;;;;;;;9.80;5.60;;;;;;;1.31;67.98;98962.85;126805;1306;107696;-76
2021/12/03 03:34:44;;;;;;;8.90;5.40;;;;;;;1.32;67.84;98967.33;126832;1306;109019;-74
2021/12/03 03:37:50;;;;;;;12.60;6.80;;;;;;;1.31;67.71;98972.46;126588;1311;108760;-76
2021/12/03 03:40:57;;;;;;;10.90;5.80;;;;;;;1.29;68.06;98978.77;126805;1306;108751;-76
2021/12/03 03:44:02;;;;;;;10.10;6.30;;;;;;;1.25;68.37;98985.23;126805;1306;108913;-74
2021/12/03 03:47:08;;;;;;;9.40;5.80;;;;;;;1.19;68.60;98985.51;126435;1306;230115;-80
2021/12/03 03:50:17;;;;;;;10.60;5.50;;;;;;;1.22;68.45;98987.92;126611;1313;108903;-78
2021/12/03 03:53:22;;;;;;;9.90;5.70;;;;;;;1.31;68.89;98994.19;126806;1309;107501;-79
2021/12/03 03:56:29;;;;;;;8.60;5.60;;;;;;;1.35;68.60;99000.75;126661;1306;108533;-75
2021/12/03 03:59:34;;;;;;;9.80;5.80;;;;;;;1.35;69.02;98998.08;126657;1306;108765;-79
2021/12/03 04:02:41;;;;;;;9.10;5.60;;;;;;;1.33;68.77;98997.55;126932;1306;107704;-76
2021/12/03 04:05:46;;;;;;;10.30;5.80;;;;;;;1.33;68.73;99003.67;127122;1310;108896;-79
2021/12/03 04:08:52;;;;;;;10.10;6.30;;;;;;;1.30;69.09;99003.17;127065;1306;109002;-77
2021/12/03 04:11:58;;;;;;;14.10;8.40;;;;;;;1.24;69.18;99007.04;127114;1306;108891;-77
2021/12/03 04:15:04;;;;;;;13.60;8.40;;;;;;;1.21;69.20;99007.84;126660;1306;108806;-77
2021/12/03 04:18:09;;;;;;;10.90;6.60;;;;;;;1.22;69.07;99008.09;126698;1313;108910;-78
2021/12/03 04:21:15;;;;;;;8.70;5.50;;;;;;;1.30;68.92;99008.84;126605;1306;108793;-77
2021/12/03 04:24:21;;;;;;;9.60;5.30;;;;;;;1.33;68.92;99015.40;126809;1307;109010;-78
2021/12/03 04:27:26;;;;;;;8.90;4.80;;;;;;;1.33;69.01;99024.52;126648;1306;108881;-78
2021/12/03 04:30:32;;;;;;;9.40;5.00;;;;;;;1.36;69.00;99032.46;126756;1306;108673;-78
2021/12/03 04:33:38;;;;;;;7.70;5.10;;;;;;;1.32;68.96;99035.27;126712;1306;108864;-78
2021/12/03 04:36:43;;;;;;;8.60;5.10;;;;;;;1.23;69.10;99034.10;126552;1306;108917;-77
2021/12/03 04:39:49;;;;;;;6.80;4.90;;;;;;;1.21;69.16;99035.30;126644;1306;108801;-78
2021/12/03 04:42:54;;;;;;;7.80;5.10;;;;;;;1.21;68.93;99041.43;126530;1313;108864;-78
2021/12/03 04:46:00;;;;;;;9.90;5.40;;;;;;;1.11;69.39;99043.23;126971;1306;108713;-78
2021/12/03 04:49:05;;;;;;;8.00;4.60;;;;;;;1.02;69.20;99053.30;126990;1306;108778;-78
2021/12/03 04:52:11;;;;;;;9.20;5.20;;;;;;;0.96;69.64;99055.29;126770;1306;108584;-78
2021/12/03 04:55:17;;;;;;;9.30;5.50;;;;;;;0.96;69.67;99057.42;126938;1309;108969;-77
2021/12/03 04:58:23;;;;;;;10.20;7.00;;;;;;;0.97;69.71;99060.16;126891;1306;107787;-78
2021/12/03 05:01:28;;;;;;;11.10;6.30;;;;;;;0.96;69.50;99062.46;126868;1306;107487;-78
2021/12/03 05:04:37;;;;;;;10.40;5.80;;;;;;;1.00;69.49;99066.55;126701;1306;108948;-78
2021/12/03 05:07:54;;;;;;;7.60;5.00;;;;;;;1.00;69.40;99067.77;126956;1306;108875;-78
2021/12/03 05:11:00;;;;;;;10.10;5.50;;;;;;;1.02;69.30;99073.27;127034;1306;108745;-76
2021/12/03 05:14:06;;;;;;;10.80;6.20;;;;;;;1.01;69.24;99075.78;127071;1306;108792;-76
2021/12/03 05:17:11;;;;;;;33.40;15.20;;;;;;;0.93;69.18;99087.40;127049;1307;108889;-76
2021/12/03 05:20:16;;;;;;;34.00;14.80;;;;;;;0.88;68.95;99090.09;127010;1307;108624;-78
2021/12/03 05:23:24;;;;;;;14.10;6.60;;;;;;;0.86;68.84;99098.12;127092;1313;107709;-78
2021/12/03 05:26:29;;;;;;;15.90;6.90;;;;;;;0.84;69.08;99092.50;127098;1311;108692;-77
2021/12/03 05:29:35;;;;;;;20.30;8.30;;;;;;;0.83;69.22;99101.86;126647;1306;107790;-77
2021/12/03 05:32:41;;;;;;;13.70;6.50;;;;;;;0.85;69.05;99104.15;126614;1306;109170;-77
2021/12/03 05:35:47;;;;;;;18.40;7.60;;;;;;;0.87;69.00;99103.45;126514;1309;109176;-80
2021/12/03 05:38:53;;;;;;;46.10;14.20;;;;;;;0.81;68.86;99110.98;126452;1309;108372;-77
2021/12/03 05:41:58;;;;;;;21.40;10.00;;;;;;;0.73;68.86;99113.13;126607;1306;108828;-78
2021/12/03 05:45:06;;;;;;;60.90;21.20;;;;;;;0.66;68.80;99116.83;126742;1307;108981;-77
2021/12/03 05:48:11;;;;;;;355.50;172.60;;;;;;;0.65;68.86;99121.98;126690;1306;106947;-77
2021/12/03 05:51:18;;;;;;;97.20;37.20;;;;;;;0.64;68.89;99131.30;126760;1307;108903;-77
2021/12/03 05:54:24;;;;;;;33.20;11.90;;;;;;;0.59;68.81;99134.34;126645;1307;108696;-77
2021/12/03 05:57:29;;;;;;;28.20;11.40;;;;;;;0.60;68.78;99130.77;126636;1306;108910;-77
2021/12/03 06:00:39;;;;;;;47.00;13.50;;;;;;;0.67;68.69;99132.71;126582;1306;108702;-77
2021/12/03 06:03:46;;;;;;;16.00;6.40;;;;;;;0.73;68.93;99135.34;126663;1306;108811;-78
2021/12/03 06:06:51;;;;;;;17.20;6.00;;;;;;;0.70;68.74;99144.82;126652;1306;108841;-76
2021/12/03 06:09:57;;;;;;;45.50;12.00;;;;;;;0.61;68.84;99143.77;126610;1306;108690;-77
2021/12/03 06:13:02;;;;;;;16.00;7.10;;;;;;;0.52;69.10;99145.36;126784;1306;108882;-77
2021/12/03 06:16:09;;;;;;;8.50;4.40;;;;;;;0.52;68.87;99150.45;126676;1306;107398;-77
2021/12/03 06:19:14;;;;;;;15.30;6.60;;;;;;;0.52;68.67;99157.39;126707;1306;109632;-78
2021/12/03 06:22:20;;;;;;;10.00;5.10;;;;;;;0.45;68.85;99167.08;126697;1306;108929;-77
2021/12/03 06:25:25;;;;;;;9.20;6.70;;;;;;;0.37;68.75;99167.30;126512;1309;108673;-77
2021/12/03 06:28:35;;;;;;;12.10;6.80;;;;;;;0.34;68.99;99179.23;126536;1312;107843;-77
2021/12/03 06:31:40;;;;;;;8.00;4.80;;;;;;;0.38;68.93;99184.02;126613;1312;109047;-76
2021/12/03 06:34:46;;;;;;;6.80;4.10;;;;;;;0.47;68.91;99191.06;126590;1312;108891;-77
2021/12/03 06:37:52;;;;;;;30.50;19.50;;;;;;;0.60;68.76;99190.77;126645;1312;108707;-80
2021/12/03 06:40:58;;;;;;;26.90;16.20;;;;;;;0.68;68.78;99195.94;126506;1309;109933;-77
2021/12/03 06:44:05;;;;;;;15.20;8.60;;;;;;;0.76;68.80;99198.99;126608;1308;108599;-77
2021/12/03 06:47:11;;;;;;;10.00;5.30;;;;;;;0.77;68.63;99204.17;126510;1312;108899;-77
2021/12/03 06:50:18;;;;;;;10.10;4.90;;;;;;;0.73;68.60;99204.84;126492;1309;108728;-77
2021/12/03 06:53:26;;;;;;;8.20;5.10;;;;;;;0.72;68.45;99203.02;126487;1315;108612;-76
2021/12/03 06:56:44;;;;;;;10.40;4.90;;;;;;;0.65;68.43;99209.30;126850;1309;108742;-77
2021/12/03 06:59:49;;;;;;;9.70;6.00;;;;;;;0.60;68.42;99207.61;126458;1312;108811;-77
2021/12/03 07:02:55;;;;;;;9.70;5.90;;;;;;;0.53;68.42;99207.77;126794;1307;108900;-76
2021/12/03 07:06:00;;;;;;;8.80;5.10;;;;;;;0.44;68.32;99214.09;126742;1309;108908;-77
2021/12/03 07:09:07;;;;;;;15.10;9.10;;;;;;;0.40;68.42;99222.04;126840;1313;107039;-77
2021/12/03 07:12:13;;;;;;;30.60;12.60;;;;;;;0.37;68.37;99220.70;126611;1309;108814;-76
2021/12/03 07:15:19;;;;;;;13.70;6.30;;;;;;;0.34;68.52;99215.27;126878;1312;109685;-77
2021/12/03 07:18:24;;;;;;;10.30;6.10;;;;;;;0.39;68.59;99218.78;126683;1312;109211;-77
2021/12/03 07:21:30;;;;;;;10.40;5.20;;;;;;;0.44;68.39;99222.45;126795;1307;109611;-76
2021/12/03 07:24:35;;;;;;;12.50;7.20;;;;;;;0.50;68.35;99226.72;126932;1309;109031;-76
2021/12/03 07:27:41;;;;;;;141.70;70.90;;;;;;;0.56;68.50;99234.48;127026;1307;108981;-77
2021/12/03 07:30:47;;;;;;;164.40;76.00;;;;;;;0.60;68.44;99236.83;127055;1308;108925;-77
2021/12/03 07:33:54;;;;;;;102.50;42.10;;;;;;;0.62;68.43;99235.61;126854;1314;108773;-77
2021/12/03 07:36:59;;;;;;;278.60;112.70;;;;;;;0.63;68.33;99237.09;126997;1314;107650;-78
2021/12/03 07:40:08;;;;;;;56.30;22.30;;;;;;;0.64;68.37;99243.54;127096;1313;109823;-76
2021/12/03 07:43:16;;;;;;;28.50;15.30;;;;;;;0.62;68.54;99241.90;126903;1310;107990;-77
2021/12/03 07:46:21;;;;;;;31.20;19.10;;;;;;;0.61;68.48;99243.91;126494;1315;107549;-77
2021/12/03 07:49:28;;;;;;;22.20;12.50;;;;;;;0.58;68.37;99254.64;126949;1309;108676;-76
2021/12/03 07:52:34;;;;;;;14.10;9.20;;;;;;;0.57;68.54;99255.42;126899;1310;108369;-78
2021/12/03 07:55:40;;;;;;;11.40;7.40;;;;;;;0.57;68.47;99254.56;126512;1310;108471;-77
2021/12/03 07:58:45;;;;;;;10.80;6.30;;;;;;;0.57;68.54;99258.20;126910;1309;108789;-78
2021/12/03 08:01:51;;;;;;;10.50;5.60;;;;;;;0.57;68.43;99259.92;127010;1308;107865;-76
2021/12/03 08:04:56;;;;;;;9.50;5.90;;;;;;;0.58;68.57;99262.31;126899;1313;108022;-79
2021/12/03 08:08:02;;;;;;;8.40;4.40;;;;;;;0.64;68.60;99254.54;127065;1311;108751;-77
2021/12/03 08:11:08;;;;;;;7.90;4.90;;;;;;;0.73;68.59;99255.77;127025;1312;109191;-77
2021/12/03 08:14:13;;;;;;;7.90;4.80;;;;;;;0.83;68.62;99258.35;126551;1309;108787;-77
2021/12/03 08:17:19;;;;;;;8.10;4.80;;;;;;;0.91;68.48;99261.41;126863;1313;108807;-77
2021/12/03 08:20:24;;;;;;;9.00;5.50;;;;;;;0.96;68.41;99259.27;126924;1314;109066;-77
2021/12/03 08:23:29;;;;;;;7.80;5.10;;;;;;;0.98;68.21;99255.30;127093;1308;108997;-77
2021/12/03 08:26:40;;;;;;;9.50;4.80;;;;;;;0.99;68.29;99261.02;126923;1309;108918;-77
2021/12/03 08:29:50;;;;;;;10.20;4.80;;;;;;;0.97;68.21;99255.39;126825;1314;108354;-78
2021/12/03 08:32:56;;;;;;;14.10;8.50;;;;;;;0.97;68.25;99255.54;127049;1311;108822;-76
2021/12/03 08:36:02;;;;;;;11.00;6.50;;;;;;;0.96;68.17;99254.58;126973;1309;108732;-78
2021/12/03 08:39:08;;;;;;;10.90;5.90;;;;;;;0.95;68.15;99257.99;127088;1313;108866;-77
2021/12/03 08:42:13;;;;;;;9.60;5.90;;;;;;;0.96;68.10;99257.75;126915;1307;108677;-77
2021/12/03 08:45:21;;;;;;;11.80;6.00;;;;;;;0.96;67.95;99268.21;126498;1313;108809;-77
2021/12/03 08:48:34;;;;;;;11.60;5.40;;;;;;;1.00;68.20;99262.70;126786;1312;108759;-77
2021/12/03 08:51:55;;;;;;;10.30;5.50;;;;;;;1.03;68.01;99269.16;126870;1314;108861;-77
2021/12/03 08:55:01;;;;;;;10.90;6.50;;;;;;;1.02;67.96;99262.00;126707;1311;108656;-76
2021/12/03 08:58:07;;;;;;;10.70;5.90;;;;;;;1.05;67.99;99257.44;126490;1312;109499;-77
2021/12/03 09:01:13;;;;;;;9.50;5.50;;;;;;;1.10;67.96;99256.19;127053;1311;108735;-77
2021/12/03 09:04:19;;;;;;;8.60;4.20;;;;;;;1.19;67.88;99252.47;126887;1312;107484;-77
2021/12/03 09:07:25;;;;;;;7.60;4.20;;;;;;;1.31;67.80;99247.17;126977;1313;108849;-77
2021/12/03 09:10:30;;;;;;;8.60;4.80;;;;;;;1.45;67.80;99250.84;126958;1306;106643;-78
2021/12/03 09:13:35;;;;;;;7.40;4.30;;;;;;;1.57;67.64;99248.48;126712;1314;108725;-77
2021/12/03 09:16:41;;;;;;;10.00;4.30;;;;;;;1.68;67.58;99255.17;127019;1312;107729;-79
2021/12/03 09:19:53;;;;;;;8.20;4.70;;;;;;;1.75;67.52;99252.64;127049;1312;108894;-78
2021/12/03 09:23:02;;;;;;;8.10;4.40;;;;;;;1.83;67.54;99249.58;127037;1312;108691;-77
2021/12/03 09:26:09;;;;;;;8.20;4.90;;;;;;;1.90;67.29;99248.45;126702;1312;108907;-79
2021/12/03 09:29:23;;;;;;;7.80;4.50;;;;;;;1.96;67.28;99245.78;126771;1312;108613;-78
2021/12/03 09:32:31;;;;;;;11.20;5.40;;;;;;;2.02;67.14;99244.27;127012;1313;108426;-78
2021/12/03 09:35:40;;;;;;;10.10;4.50;;;;;;;2.05;67.12;99236.82;127021;1312;107848;-77
2021/12/03 09:38:46;;;;;;;8.80;4.50;;;;;;;2.08;67.19;99231.46;126864;1312;108941;-77
2021/12/03 09:41:53;;;;;;;9.80;4.70;;;;;;;2.12;67.13;99233.58;126983;1312;107100;-78
2021/12/03 09:44:59;;;;;;;18.00;11.30;;;;;;;2.19;66.95;99236.41;126992;1314;109006;-78
2021/12/03 09:48:17;;;;;;;52.50;30.50;;;;;;;2.23;66.91;99228.71;126696;1307;108923;-77
2021/12/03 09:51:24;;;;;;;26.20;13.10;;;;;;;2.26;66.88;99234.55;126625;1313;109019;-77
2021/12/03 09:54:34;;;;;;;68.90;33.50;;;;;;;2.30;66.73;99220.72;126919;1307;109004;-79
2021/12/03 09:57:43;;;;;;;119.20;52.20;;;;;;;2.34;66.59;99214.96;127141;1312;108788;-78
2021/12/03 10:00:53;;;;;;;122.60;50.10;;;;;;;2.40;66.86;99213.45;126978;1312;108796;-78
2021/12/03 10:04:19;;;;;;;266.60;101.70;;;;;;;2.43;66.63;99220.71;126920;1312;108770;-78
2021/12/03 10:18:05;;;;;;;27.30;11.10;;;;;;;2.63;66.40;99224.35;126913;1312;108703;-78
2021/12/03 10:21:38;;;;;;;24.60;11.80;;;;;;;2.76;66.36;99227.10;127032;1311;109145;-78
2021/12/03 10:38:52;;;;;;;9.20;4.50;;;;;;;2.78;65.43;99206.93;127021;1306;107739;-79
2021/12/03 10:42:08;;;;;;;13.00;7.30;;;;;;;2.74;65.65;99209.21;126629;1312;107416;-79
2021/12/03 10:45:31;;;;;;;11.90;4.70;;;;;;;2.74;65.73;99210.73;126513;1312;108785;-79
2021/12/03 10:48:46;;;;;;;14.30;5.80;;;;;;;2.78;65.64;99201.55;126880;1312;108759;-78
2021/12/03 10:52:04;;;;;;;73.80;26.80;;;;;;;2.80;65.57;99207.19;126986;1313;108984;-79
2021/12/03 10:59:07;;;;;;;16.10;7.60;;;;;;;2.95;65.43;99203.01;126824;1313;108729;-79
2021/12/03 11:06:07;;;;;;;10.90;4.50;;;;;;;3.15;65.59;99196.42;126748;1313;108501;-79
2021/12/03 11:30:15;;;;;;;16.00;5.60;;;;;;;3.86;64.03;99212.23;126800;1312;108806;-79
2021/12/03 13:13:49;;;;;;;10.10;4.00;;;;;;;3.41;63.95;99251.62;125972;1317;108968;-77
2021/12/03 14:02:03;;;;;;;10.90;5.00;;;;;;;2.77;64.35;99318.36;126372;1313;108652;-79
2021/12/03 14:53:41;;;;;;;15.10;6.10;;;;;;;2.35;64.64;99380.37;126102;1312;108825;-79
2021/12/03 14:57:07;;;;;;;16.80;7.30;;;;;;;2.26;64.80;99382.13;126409;1313;108739;-77
2021/12/03 15:00:20;;;;;;;17.40;10.50;;;;;;;2.19;64.87;99389.04;126431;1312;107240;-78
2021/12/03 15:03:41;;;;;;;31.50;16.50;;;;;;;2.12;65.08;99389.05;126512;1312;108734;-80
2021/12/03 15:07:04;;;;;;;18.20;9.20;;;;;;;2.05;65.11;99390.14;126430;1314;108760;-76
2021/12/03 15:10:14;;;;;;;;;;;;;;;1.97;65.04;99392.13;126414;1312;108840;-79
2021/12/03 15:13:53;;;;;;;13.80;7.70;;;;;;;1.91;65.29;99392.60;126627;1312;108732;-81
2021/12/03 15:21:00;;;;;;;20.60;10.70;;;;;;;1.80;65.30;99389.11;126724;1312;109178;-81
2021/12/03 15:31:06;;;;;;;26.90;13.20;;;;;;;1.66;65.61;99400.14;127147;1309;107678;-77
2021/12/03 15:34:21;;;;;;;15.60;7.80;;;;;;;1.68;65.80;99406.28;126804;1310;108731;-81
2021/12/03 15:37:44;;;;;;;20.60;11.40;;;;;;;1.73;65.71;99409.20;126922;1309;108985;-78
2021/12/03 16:04:43;;;;;;;16.20;6.80;;;;;;;1.66;65.87;99428.73;127032;1308;108742;-78
2021/12/03 16:08:04;;;;;;;18.30;9.60;;;;;;;1.61;65.88;99433.46;126784;1308;108873;-80
2021/12/03 16:11:17;;;;;;;16.30;8.80;;;;;;;1.56;65.85;99438.55;127187;1308;108983;-78
2021/12/03 16:21:41;;;;;;;24.90;12.70;;;;;;;1.47;66.12;99447.50;126357;1309;108850;-84
2021/12/03 16:45:28;;;;;;;18.40;10.80;;;;;;;2.07;65.90;99466.83;127239;1309;108921;-82
2021/12/03 16:51:54;;;;;;;15.80;7.20;;;;;;;2.17;65.78;99472.86;127164;1310;107729;-83
2021/12/03 16:55:02;;;;;;;14.80;7.00;;;;;;;2.20;65.73;99473.88;126957;1310;108688;-82
2021/12/03 16:58:08;;;;;;;17.10;7.40;;;;;;;2.22;65.71;99473.17;126888;1309;108719;-83
2021/12/03 17:01:25;;;;;;;13.50;6.80;;;;;;;2.22;65.64;99475.09;127052;1313;107857;-83
2021/12/03 17:04:51;;;;;;;16.40;6.80;;;;;;;2.22;65.54;99475.66;126974;1309;108726;-81
2021/12/03 17:14:56;;;;;;;19.00;9.30;;;;;;;2.21;65.27;99474.48;128083;1309;107722;-82
2021/12/03 17:46:11;;;;;;;16.40;8.70;;;;;;;2.21;64.91;99483.14;126697;1319;108722;-83
2021/12/03 17:49:32;;;;;;;20.00;10.20;;;;;;;2.13;64.94;99487.75;126470;1319;108814;-81
2021/12/03 17:53:08;;;;;;;19.80;8.90;;;;;;;2.08;64.98;99487.23;126030;1319;108700;-81
2021/12/03 17:56:15;;;;;;;21.80;10.50;;;;;;;2.03;64.86;99488.73;125962;1323;108130;-86
2021/12/03 17:59:23;;;;;;;19.90;9.00;;;;;;;1.97;64.89;99487.02;126364;1313;109007;-77
2021/12/03 18:02:35;;;;;;;20.10;9.70;;;;;;;1.93;64.70;99490.48;126272;1313;109026;-82
2021/12/03 18:06:02;;;;;;;22.50;10.60;;;;;;;1.87;64.77;99492.48;126320;1314;108768;-86
2021/12/03 18:09:23;;;;;;;22.60;12.50;;;;;;;1.84;64.90;99496.61;126196;1314;108919;-83
2021/12/03 18:13:08;;;;;;;17.90;9.60;;;;;;;1.81;64.79;99500.87;127130;1310;108687;-77
2021/12/03 18:16:50;;;;;;;21.40;9.30;;;;;;;1.74;64.66;99497.55;127129;1307;108555;-78
2021/12/03 18:44:00;;;;;;;16.00;8.00;;;;;;;1.07;64.50;99541.13;126971;1309;108836;-78
2021/12/03 18:47:43;;;;;;;17.20;8.60;;;;;;;1.00;64.46;99539.40;126854;1306;109037;-81
2021/12/03 18:51:00;;;;;;;;;;;;;;;0.93;64.30;99539.73;127248;1306;107967;-79
2021/12/03 18:54:21;;;;;;;13.70;7.40;;;;;;;0.88;64.40;99542.34;127236;1313;108934;-81
2021/12/03 18:57:29;;;;;;;15.10;7.60;;;;;;;0.83;64.19;99548.30;127048;1306;108801;-82
2021/12/03 19:00:38;;;;;;;18.60;8.20;;;;;;;0.77;64.31;99551.50;126928;1307;107701;-81
2021/12/03 19:04:01;;;;;;;14.70;8.10;;;;;;;0.73;64.22;99552.11;127165;1306;108835;-83
2021/12/03 19:07:09;;;;;;;15.90;8.60;;;;;;;0.70;64.27;99549.37;126848;1309;108273;-76
2021/12/03 19:10:19;;;;;;;17.50;8.20;;;;;;;0.68;64.22;99548.45;126730;1309;107748;-78
2021/12/03 19:13:27;;;;;;;17.70;9.20;;;;;;;0.67;64.14;99542.62;126963;1309;109572;-83
2021/12/03 19:16:32;;;;;;;14.20;7.80;;;;;;;0.64;64.22;99547.19;127430;1305;107341;-82
2021/12/03 19:19:42;;;;;;;17.00;9.20;;;;;;;0.62;64.04;99551.86;127155;1309;108656;-79
2021/12/03 19:22:48;;;;;;;17.10;8.90;;;;;;;0.61;64.01;99556.70;126916;1312;108843;-80
2021/12/03 19:25:54;;;;;;;15.70;8.70;;;;;;;0.60;63.95;99559.17;126798;1307;108869;-81
2021/12/03 19:29:01;;;;;;;16.60;9.20;;;;;;;0.58;63.93;99563.17;127151;1307;108453;-78
2021/12/03 19:32:08;;;;;;;16.70;8.10;;;;;;;0.54;64.00;99561.32;127174;1306;108798;-77
2021/12/03 19:35:13;;;;;;;19.40;9.00;;;;;;;0.51;64.01;99559.28;127052;1306;109026;-78
2021/12/03 19:38:19;;;;;;;17.30;8.90;;;;;;;0.48;63.92;99563.55;127053;1309;108792;-77
2021/12/03 19:41:30;;;;;;;18.80;8.20;;;;;;;0.45;63.95;99557.45;127049;1309;107621;-76
2021/12/03 19:44:41;;;;;;;13.60;7.70;;;;;;;0.44;63.92;99558.75;127378;1308;108728;-77
2021/12/03 19:47:55;;;;;;;15.90;8.60;;;;;;;0.41;63.95;99559.10;127092;1306;108770;-75
2021/12/03 19:51:02;;;;;;;20.80;9.10;;;;;;;0.37;63.70;99558.09;126733;1307;108819;-76
2021/12/03 19:54:19;;;;;;;27.00;14.90;;;;;;;0.34;63.86;99566.88;127080;1306;110109;-75
2021/12/03 19:57:26;;;;;;;19.20;9.50;;;;;;;0.31;63.78;99567.43;126900;1306;106646;-77
2021/12/03 20:00:34;;;;;;;49.80;28.80;;;;;;;0.30;63.83;99568.79;127192;1309;108767;-77
2021/12/03 20:03:43;;;;;;;184.20;95.30;;;;;;;0.29;63.82;99571.65;126974;1307;107817;-77
2021/12/03 20:06:49;;;;;;;286.20;138.80;;;;;;;0.26;63.77;99572.19;127340;1308;108810;-72
2021/12/03 20:10:01;;;;;;;76.50;34.30;;;;;;;0.24;63.71;99567.23;127035;1307;108954;-75
2021/12/03 20:13:08;;;;;;;63.20;29.50;;;;;;;0.22;63.80;99569.64;126772;1309;108698;-76
2021/12/03 20:16:22;;;;;;;58.90;28.50;;;;;;;0.20;63.85;99569.96;126664;1310;108700;-79
2021/12/03 20:19:33;;;;;;;46.20;24.10;;;;;;;0.18;63.67;99571.87;126951;1306;108719;-79
2021/12/03 20:22:45;;;;;;;23.60;12.40;;;;;;;0.16;63.61;99571.09;126735;1309;108823;-78
2021/12/03 20:26:09;;;;;;;24.40;11.50;;;;;;;0.14;63.63;99571.56;126853;1309;109055;-79
2021/12/03 20:29:19;;;;;;;19.00;9.80;;;;;;;0.11;63.48;99570.58;126824;1306;108872;-77
2021/12/03 20:32:35;;;;;;;18.00;8.50;;;;;;;0.08;63.45;99570.95;126691;1306;108841;-79
2021/12/03 20:39:02;;;;;;;15.90;8.20;;;;;;;0.05;63.39;99570.84;126721;1306;108936;-80
2021/12/03 20:42:14;;;;;;;15.80;7.60;;;;;;;0.02;63.51;99572.23;126949;1308;107871;-82